Time;durP1;ratioP1;P1;durP2;ratioP2;P2;SDS_P1;SDS_P2;PMS_P1;PMS_P2;Temp;Humidity;BMP_temperature;BMP_pressure;BME280_temperature;BME280_humidity;BME280_pressure;Samples;Min_cycle;Max_cycle;Signal;HPM_P1;HPM_P2
2024/01/18 00:01:13;;;;;;;5.25;2.25;;;1.60;99.90;;;;;;4955613;28;20229;-82
2024/01/18 00:03:40;;;;;;;11.50;4.20;;;1.70;99.90;;;;;;4976676;28;20221;-81
2024/01/18 00:06:08;;;;;;;4.03;3.83;;;1.70;99.90;;;;;;4978279;28;20221;-81
2024/01/18 00:08:35;;;;;;;1.30;1.30;;;1.70;99.90;;;;;;4967712;28;20203;-82
2024/01/18 00:11:03;;;;;;;3.13;2.92;;;1.70;99.90;;;;;;4978259;28;20430;-82
2024/01/18 00:13:30;;;;;;;9.55;4.35;;;1.70;99.90;;;;;;4963002;28;20238;-81
2024/01/18 00:15:57;;;;;;;1.80;1.70;;;1.70;99.90;;;;;;4971119;28;20456;-79
2024/01/18 00:18:24;;;;;;;1.70;1.70;;;1.70;99.90;;;;;;4978819;28;20210;-80
2024/01/18 00:20:51;;;;;;;6.00;5.50;;;1.70;99.90;;;;;;4968558;28;20409;-82
2024/01/18 00:23:21;;;;;;;3.50;3.20;;;1.60;99.90;;;;;;4979800;28;20211;-79
2024/01/18 00:25:49;;;;;;;2.55;2.45;;;1.80;99.90;;;;;;4982948;28;20633;-79
2024/01/18 00:28:17;;;;;;;4.13;2.35;;;1.90;99.90;;;;;;4982812;28;20255;-82
2024/01/18 00:30:44;;;;;;;4.80;4.40;;;1.90;99.90;;;;;;4983141;28;20211;-82
2024/01/18 00:33:11;;;;;;;3.05;2.85;;;1.70;99.90;;;;;;4983338;28;20192;-82
2024/01/18 00:35:39;;;;;;;1.98;1.88;;;1.70;99.90;;;;;;4966178;28;20245;-81
2024/01/18 00:38:06;;;;;;;2.72;2.63;;;1.80;99.90;;;;;;4975620;28;20209;-80
2024/01/18 00:40:34;;;;;;;4.38;3.53;;;1.80;99.90;;;;;;4975738;28;20212;-80
2024/01/18 00:43:03;;;;;;;6.85;5.07;;;1.90;99.90;;;;;;4972718;28;20277;-81
2024/01/18 00:45:32;;;;;;;4.55;2.63;;;1.80;99.90;;;;;;4972361;28;20206;-80
2024/01/18 00:47:59;;;;;;;3.33;3.10;;;1.80;99.90;;;;;;4975934;28;20202;-80
2024/01/18 00:50:28;;;;;;;2.15;2.05;;;1.80;99.90;;;;;;4972332;28;20203;-80
2024/01/18 00:52:55;;;;;;;16.52;5.30;;;1.70;99.90;;;;;;4976631;28;20326;-80
2024/01/18 00:55:22;;;;;;;2.55;2.45;;;1.70;99.90;;;;;;4972587;28;20281;-80
2024/01/18 00:57:52;;;;;;;2.28;2.17;;;1.70;99.90;;;;;;4963581;28;20480;-81
2024/01/18 01:00:19;;;;;;;2.95;2.75;;;1.80;99.90;;;;;;4973584;28;20223;-81
2024/01/18 01:02:46;;;;;;;3.30;3.10;;;1.70;99.90;;;;;;4977431;28;20276;-81
2024/01/18 01:05:13;;;;;;;2.40;2.30;;;1.70;99.90;;;;;;4977642;28;20502;-79
2024/01/18 01:07:40;;;;;;;5.85;3.22;;;1.80;99.90;;;;;;4972194;28;20329;-81
2024/01/18 01:10:08;;;;;;;2.63;2.25;;;1.80;99.90;;;;;;4969561;28;20207;-79
2024/01/18 01:12:39;;;;;;;2.22;2.13;;;1.80;99.90;;;;;;4971357;28;20309;-79
2024/01/18 01:15:07;;;;;;;10.18;5.20;;;1.80;99.90;;;;;;4976479;28;20246;-78
2024/01/18 01:17:34;;;;;;;2.33;2.22;;;1.80;99.90;;;;;;4975827;28;20769;-79
2024/01/18 01:20:03;;;;;;;1.92;1.83;;;1.70;99.90;;;;;;4974425;28;20637;-81
2024/01/18 01:22:32;;;;;;;2.15;2.05;;;1.80;99.90;;;;;;4969534;28;20281;-78
2024/01/18 01:25:01;;;;;;;2.30;2.10;;;1.90;99.90;;;;;;4958823;28;20214;-78
2024/01/18 01:27:28;;;;;;;3.40;3.17;;;2.00;99.90;;;;;;4971291;28;20233;-79
2024/01/18 01:29:55;;;;;;;1.95;1.85;;;1.90;99.90;;;;;;4969848;28;20199;-79
2024/01/18 01:32:22;;;;;;;3.53;3.28;;;2.00;99.90;;;;;;4977352;28;20561;-79
2024/01/18 01:34:50;;;;;;;1.50;1.40;;;2.10;99.90;;;;;;4983637;28;20205;-79
2024/01/18 01:37:17;;;;;;;3.00;2.80;;;2.10;99.90;;;;;;4972145;28;20214;-80
2024/01/18 01:39:44;;;;;;;2.20;2.10;;;2.20;99.90;;;;;;4977693;28;20231;-79
2024/01/18 01:42:11;;;;;;;2.03;1.92;;;2.20;99.90;;;;;;4971699;28;20232;-80
2024/01/18 01:44:38;;;;;;;1.63;1.55;;;2.20;99.90;;;;;;4971017;28;20208;-81
2024/01/18 01:47:07;;;;;;;3.40;3.20;;;2.20;99.90;;;;;;4970524;28;20207;-81
2024/01/18 01:49:34;;;;;;;1.05;1.05;;;2.20;99.90;;;;;;4978399;28;20454;-82
2024/01/18 01:52:03;;;;;;;2.80;2.60;;;2.10;99.90;;;;;;4955129;28;20232;-81
2024/01/18 01:54:32;;;;;;;3.10;2.88;;;2.10;99.90;;;;;;4969799;28;20239;-80
2024/01/18 01:57:03;;;;;;;7.65;2.70;;;2.00;99.90;;;;;;4956753;28;20211;-78
2024/01/18 01:59:32;;;;;;;1.45;1.45;;;2.00;99.90;;;;;;4975016;28;20202;-78
2024/01/18 02:01:59;;;;;;;1.23;1.13;;;2.10;99.90;;;;;;4971710;28;20511;-79
2024/01/18 02:04:27;;;;;;;2.20;2.10;;;1.80;99.90;;;;;;4973046;28;20238;-81
2024/01/18 02:06:56;;;;;;;2.15;1.77;;;2.00;99.90;;;;;;4969873;28;20278;-81
2024/01/18 02:09:25;;;;;;;3.17;3.08;;;2.00;99.90;;;;;;4972252;28;20722;-81
2024/01/18 02:11:52;;;;;;;3.05;2.85;;;1.90;99.90;;;;;;4978475;28;20388;-80
2024/01/18 02:14:22;;;;;;;4.78;4.47;;;1.90;99.90;;;;;;4975315;28;20203;-83
2024/01/18 02:16:51;;;;;;;2.70;2.53;;;1.90;99.90;;;;;;4964163;28;20290;-79
2024/01/18 02:19:17;;;;;;;1.00;1.00;;;1.80;99.90;;;;;;4976511;28;20270;-79
2024/01/18 02:21:46;;;;;;;1.10;1.10;;;1.80;99.90;;;;;;4983718;28;20214;-80
2024/01/18 02:24:41;;;;;;;2.70;2.60;;;1.80;99.90;;;;;;4996552;28;20199;-79
2024/01/18 02:27:09;;;;;;;4.70;2.63;;;1.80;99.90;;;;;;4968068;28;20305;-79
2024/01/18 02:29:37;;;;;;;1.50;1.40;;;1.80;99.90;;;;;;4987038;28;20223;-79
2024/01/18 02:32:05;;;;;;;11.32;3.85;;;1.70;99.90;;;;;;4987990;28;20241;-81
2024/01/18 02:34:39;;;;;;;2.47;2.28;;;1.80;99.90;;;;;;4970241;28;20540;-79
2024/01/18 02:37:07;;;;;;;2.65;2.55;;;1.80;99.90;;;;;;4961627;29;20202;-80
2024/01/18 02:39:36;;;;;;;2.13;2.03;;;1.70;99.90;;;;;;4949403;28;20268;-79
2024/01/18 02:42:05;;;;;;;2.88;2.78;;;1.70;99.90;;;;;;4978007;28;20667;-81
2024/01/18 02:44:34;;;;;;;1.50;1.50;;;1.80;99.90;;;;;;4978613;28;20202;-82
2024/01/18 02:47:01;;;;;;;2.10;2.00;;;1.80;99.90;;;;;;4990099;28;20188;-80
2024/01/18 02:49:28;;;;;;;4.20;3.90;;;1.90;99.90;;;;;;4983110;28;20193;-79
2024/01/18 02:51:55;;;;;;;3.10;1.60;;;1.90;99.90;;;;;;4958716;28;20427;-80
2024/01/18 02:54:23;;;;;;;1.90;1.80;;;1.90;99.90;;;;;;4974215;28;20216;-81
2024/01/18 02:56:52;;;;;;;3.80;3.60;;;1.90;99.90;;;;;;4969317;28;20215;-79
2024/01/18 02:59:20;;;;;;;2.65;2.55;;;1.90;99.90;;;;;;4966765;28;20503;-80
2024/01/18 03:01:49;;;;;;;1.88;1.77;;;1.80;99.90;;;;;;4974235;28;20281;-80
2024/01/18 03:04:17;;;;;;;1.98;1.88;;;1.80;99.90;;;;;;4973063;28;20269;-79
2024/01/18 03:06:45;;;;;;;1.70;1.65;;;1.70;99.90;;;;;;4983088;28;20258;-81
2024/01/18 03:09:14;;;;;;;0.88;0.88;;;1.70;99.90;;;;;;4977131;28;20211;-79
2024/01/18 03:11:41;;;;;;;1.60;1.50;;;1.70;99.90;;;;;;4977566;28;20270;-78
2024/01/18 03:14:08;;;;;;;2.85;2.75;;;1.60;99.90;;;;;;4983077;28;20214;-80
2024/01/18 03:16:37;;;;;;;0.85;0.85;;;1.60;99.90;;;;;;4976341;28;20275;-78
2024/01/18 03:19:04;;;;;;;3.53;2.55;;;1.60;99.90;;;;;;4972204;28;20451;-78
2024/01/18 03:21:31;;;;;;;3.15;2.95;;;1.60;99.90;;;;;;4965805;28;20258;-80
2024/01/18 03:23:58;;;;;;;1.77;1.67;;;1.50;99.90;;;;;;4966761;28;20207;-79
2024/01/18 03:26:25;;;;;;;2.55;2.35;;;1.50;99.90;;;;;;4965186;28;20210;-79
2024/01/18 03:28:55;;;;;;;3.75;3.55;;;1.50;99.90;;;;;;4971054;28;20214;-79
2024/01/18 03:31:23;;;;;;;1.77;1.67;;;1.50;99.90;;;;;;4971974;28;20226;-80
2024/01/18 03:33:50;;;;;;;2.88;2.75;;;1.40;99.90;;;;;;4967806;28;20235;-78
2024/01/18 03:36:20;;;;;;;2.25;2.15;;;1.40;99.90;;;;;;4966270;28;20215;-78
2024/01/18 03:38:47;;;;;;;2.95;2.75;;;1.40;99.90;;;;;;4972361;28;20215;-78
2024/01/18 03:41:16;;;;;;;0.70;0.70;;;1.40;99.90;;;;;;4969891;28;20218;-78
2024/01/18 03:43:43;;;;;;;5.03;2.70;;;1.30;99.90;;;;;;4978821;28;20366;-78
2024/01/18 03:46:15;;;;;;;4.75;4.45;;;1.30;99.90;;;;;;4981638;28;20267;-78
2024/01/18 03:48:46;;;;;;;4.00;2.38;;;1.30;99.90;;;;;;4957127;28;20217;-79
2024/01/18 03:51:13;;;;;;;5.60;4.82;;;1.30;99.90;;;;;;4981015;28;20592;-79
2024/01/18 03:53:43;;;;;;;2.60;2.28;;;1.30;99.90;;;;;;4973575;28;20239;-79
2024/01/18 03:56:12;;;;;;;3.22;3.03;;;1.30;99.90;;;;;;4971546;28;20281;-77
2024/01/18 03:58:43;;;;;;;3.08;2.80;;;1.20;99.90;;;;;;4974328;28;20238;-79
2024/01/18 04:01:09;;;;;;;6.40;3.83;;;1.20;99.90;;;;;;4982674;28;20238;-79
2024/01/18 04:03:37;;;;;;;26.77;3.40;;;1.20;99.90;;;;;;4978562;28;20219;-78
2024/01/18 04:06:04;;;;;;;3.42;3.22;;;1.10;99.90;;;;;;4981734;28;20282;-78
2024/01/18 04:08:31;;;;;;;3.67;3.50;;;1.10;99.90;;;;;;4981533;28;20202;-78
2024/01/18 04:10:59;;;;;;;2.85;2.65;;;1.10;99.90;;;;;;4960614;28;20211;-77
2024/01/18 04:13:26;;;;;;;9.60;2.92;;;1.00;99.90;;;;;;4972147;28;20273;-76
2024/01/18 04:15:54;;;;;;;5.78;5.32;;;1.00;99.90;;;;;;4962969;28;20278;-77
2024/01/18 04:18:21;;;;;;;8.07;4.72;;;1.00;99.90;;;;;;4979206;28;20491;-77
2024/01/18 04:20:52;;;;;;;1.98;1.88;;;1.00;99.90;;;;;;4983237;28;20839;-77
2024/01/18 04:23:20;;;;;;;3.25;3.03;;;0.90;99.90;;;;;;4980881;28;20465;-78
2024/01/18 04:25:54;;;;;;;5.80;4.72;;;0.90;99.90;;;;;;4971641;28;20506;-78
2024/01/18 04:28:21;;;;;;;2.13;2.03;;;0.90;99.90;;;;;;4975643;28;20211;-79
2024/01/18 04:30:48;;;;;;;1.77;1.73;;;0.90;99.90;;;;;;4971065;28;20211;-77
2024/01/18 04:33:18;;;;;;;0.82;0.82;;;0.90;99.90;;;;;;4974623;28;20319;-77
2024/01/18 04:35:46;;;;;;;3.30;3.10;;;0.80;99.90;;;;;;4967898;28;20211;-77
2024/01/18 04:38:13;;;;;;;6.78;4.93;;;0.80;99.90;;;;;;4964329;28;20223;-78
2024/01/18 04:40:40;;;;;;;2.58;2.38;;;0.80;99.90;;;;;;4967975;28;20242;-77
2024/01/18 04:43:08;;;;;;;2.20;2.10;;;0.70;99.90;;;;;;4973199;28;20462;-79
2024/01/18 04:45:35;;;;;;;4.07;3.78;;;0.70;99.90;;;;;;4973599;28;20484;-79
2024/01/18 04:48:03;;;;;;;3.92;3.05;;;0.70;99.90;;;;;;4972287;28;20684;-77
2024/01/18 04:50:30;;;;;;;6.93;3.35;;;0.70;99.90;;;;;;4956019;29;20280;-77
2024/01/18 04:52:57;;;;;;;4.25;4.05;;;0.70;99.90;;;;;;4961291;28;20285;-77
2024/01/18 04:55:27;;;;;;;7.07;6.68;;;0.60;99.90;;;;;;4975676;28;20271;-79
2024/01/18 04:57:54;;;;;;;4.00;3.80;;;0.70;99.90;;;;;;4989143;28;20439;-84
2024/01/18 05:00:23;;;;;;;1.98;1.92;;;0.60;99.90;;;;;;4984775;28;20203;-78
2024/01/18 05:02:50;;;;;;;2.95;2.67;;;0.50;99.90;;;;;;4986013;28;20199;-77
2024/01/18 05:05:17;;;;;;;7.30;5.15;;;0.50;99.90;;;;;;4982560;28;20269;-78
2024/01/18 05:07:44;;;;;;;5.18;3.78;;;0.40;99.90;;;;;;4964267;28;20250;-78
2024/01/18 05:10:11;;;;;;;2.75;2.65;;;0.40;99.90;;;;;;4974519;28;20235;-78
2024/01/18 05:12:38;;;;;;;4.60;4.30;;;0.40;99.90;;;;;;4979180;28;20299;-76
2024/01/18 05:15:07;;;;;;;3.20;3.10;;;0.40;99.90;;;;;;4979978;28;20214;-76
2024/01/18 05:17:35;;;;;;;3.17;2.97;;;0.40;99.90;;;;;;4981006;28;20210;-76
2024/01/18 05:20:07;;;;;;;3.05;2.85;;;0.40;99.90;;;;;;4971228;28;20211;-76
2024/01/18 05:22:35;;;;;;;2.63;2.42;;;0.30;99.90;;;;;;4978437;28;20552;-78
2024/01/18 05:25:05;;;;;;;3.83;3.53;;;0.40;99.90;;;;;;4976221;28;20208;-78
2024/01/18 05:27:34;;;;;;;2.97;2.78;;;0.30;99.90;;;;;;4970945;28;20254;-77
2024/01/18 05:30:04;;;;;;;3.33;3.13;;;0.30;99.90;;;;;;4978854;28;20250;-76
2024/01/18 05:32:31;;;;;;;4.60;4.35;;;0.30;99.90;;;;;;4958894;28;20294;-76
2024/01/18 05:35:01;;;;;;;6.03;4.90;;;0.30;99.90;;;;;;4972168;28;20210;-76
2024/01/18 05:37:28;;;;;;;4.85;4.65;;;0.30;99.90;;;;;;4978360;28;20215;-77
2024/01/18 05:39:55;;;;;;;5.15;3.13;;;0.30;99.90;;;;;;4960278;28;20452;-77
2024/01/18 05:42:23;;;;;;;15.60;6.82;;;0.30;99.90;;;;;;4966289;28;20239;-76
2024/01/18 05:44:53;;;;;;;11.95;4.25;;;0.20;99.90;;;;;;4968490;28;20245;-76
2024/01/18 05:47:22;;;;;;;2.20;2.10;;;0.20;99.90;;;;;;4964588;28;20237;-78
2024/01/18 05:49:49;;;;;;;4.43;4.13;;;0.20;99.90;;;;;;4972483;28;20343;-79
2024/01/18 05:52:16;;;;;;;4.50;4.15;;;0.20;99.90;;;;;;4955446;28;20241;-77
2024/01/18 05:54:43;;;;;;;2.80;2.60;;;0.20;99.90;;;;;;4968008;28;20281;-79
2024/01/18 05:57:10;;;;;;;1.98;1.77;;;0.20;99.90;;;;;;4967125;28;20669;-77
2024/01/18 05:59:37;;;;;;;3.65;3.35;;;0.20;99.90;;;;;;4973182;28;20345;-78
2024/01/18 06:02:05;;;;;;;6.43;4.68;;;0.20;99.90;;;;;;4969126;28;20458;-78
2024/01/18 06:04:31;;;;;;;5.38;4.97;;;0.20;99.90;;;;;;4966258;28;20312;-77
2024/01/18 06:07:02;;;;;;;13.52;7.40;;;0.10;99.90;;;;;;4976005;28;20215;-76
2024/01/18 06:09:29;;;;;;;4.00;3.67;;;0.20;99.90;;;;;;4961031;28;20216;-78
2024/01/18 06:11:57;;;;;;;2.92;2.72;;;0.10;99.90;;;;;;4966101;28;20213;-78
2024/01/18 06:14:24;;;;;;;3.65;3.35;;;0.10;99.90;;;;;;4971440;28;20305;-78
2024/01/18 06:16:50;;;;;;;2.75;2.20;;;0.10;99.90;;;;;;4966216;28;20533;-77
2024/01/18 06:19:17;;;;;;;4.40;3.67;;;0.00;99.90;;;;;;4970040;28;20282;-83
2024/01/18 06:21:44;;;;;;;6.82;5.22;;;0.10;99.90;;;;;;4970465;28;20206;-77
2024/01/18 06:24:11;;;;;;;4.10;3.90;;;0.10;99.90;;;;;;4970138;28;20588;-77
2024/01/18 06:26:38;;;;;;;5.30;4.80;;;0.10;99.90;;;;;;4959784;28;20523;-77
2024/01/18 06:29:05;;;;;;;8.00;7.30;;;0.00;99.90;;;;;;4964999;28;20230;-79
2024/01/18 06:31:34;;;;;;;5.50;5.20;;;0.00;99.90;;;;;;4966808;28;20227;-77
2024/01/18 06:34:04;;;;;;;3.20;3.05;;;0.00;99.90;;;;;;4965103;28;20239;-78
2024/01/18 06:36:38;;;;;;;5.28;4.88;;;0.00;99.90;;;;;;4970261;28;20214;-81
2024/01/18 06:39:05;;;;;;;5.43;5.03;;;0.00;99.90;;;;;;4977285;28;20218;-78
2024/01/18 06:41:32;;;;;;;5.00;4.55;;;0.00;99.90;;;;;;4967222;28;20515;-76
2024/01/18 06:43:59;;;;;;;4.53;4.30;;;-0.10;99.90;;;;;;4963828;28;20468;-76
2024/01/18 06:46:28;;;;;;;5.13;4.80;;;-0.10;99.90;;;;;;4971115;28;20203;-77
2024/01/18 06:48:57;;;;;;;8.25;7.63;;;-0.10;99.90;;;;;;4978282;28;20247;-76
2024/01/18 06:51:24;;;;;;;12.15;7.75;;;-0.10;99.90;;;;;;4976859;28;20270;-79
2024/01/18 06:53:51;;;;;;;7.93;5.78;;;-0.10;99.90;;;;;;4965887;28;20373;-77
2024/01/18 06:56:18;;;;;;;8.15;7.45;;;-0.20;99.90;;;;;;4980817;28;20274;-80
2024/01/18 06:58:45;;;;;;;6.93;6.43;;;-0.10;99.90;;;;;;4973716;28;20231;-78
2024/01/18 07:01:12;;;;;;;2.60;2.50;;;-0.10;99.90;;;;;;4972001;28;20254;-79
2024/01/18 07:03:42;;;;;;;8.52;6.30;;;-0.10;99.90;;;;;;4966084;28;20223;-79
2024/01/18 07:06:09;;;;;;;6.03;5.40;;;-0.10;99.90;;;;;;4980317;28;20289;-79
2024/01/18 07:08:37;;;;;;;4.32;3.97;;;-0.10;99.90;;;;;;4954208;29;20535;-78
2024/01/18 07:11:04;;;;;;;2.58;2.47;;;-0.10;99.90;;;;;;4966325;28;20216;-77
2024/01/18 07:13:31;;;;;;;8.90;7.90;;;-0.10;99.90;;;;;;4973721;28;20606;-77
2024/01/18 07:15:58;;;;;;;8.55;5.13;;;-0.20;99.90;;;;;;4964515;28;20294;-79
2024/01/18 07:18:27;;;;;;;5.75;5.35;;;-0.10;99.90;;;;;;4973843;28;20637;-80
2024/01/18 07:20:54;;;;;;;12.60;7.85;;;-0.20;99.90;;;;;;4971954;28;20251;-80
2024/01/18 07:23:21;;;;;;;7.22;6.72;;;-0.20;99.90;;;;;;4980219;28;20231;-79
2024/01/18 07:25:48;;;;;;;8.82;7.95;;;0.00;99.90;;;;;;4976001;28;20219;-78
2024/01/18 07:28:15;;;;;;;3.03;2.83;;;-0.10;99.90;;;;;;5000386;28;20198;-79
2024/01/18 07:30:42;;;;;;;8.00;5.72;;;-0.10;99.90;;;;;;4991118;28;20228;-78
2024/01/18 07:33:09;;;;;;;4.60;4.25;;;-0.10;99.90;;;;;;4967665;28;20330;-78
2024/01/18 07:35:36;;;;;;;7.18;6.60;;;-0.10;99.90;;;;;;4978400;28;20717;-79
2024/01/18 07:38:04;;;;;;;9.20;5.65;;;-0.20;99.90;;;;;;4980278;28;20274;-78
2024/01/18 07:40:31;;;;;;;10.00;3.08;;;-0.20;99.90;;;;;;4959785;29;20247;-80
2024/01/18 07:42:58;;;;;;;2.00;1.90;;;-0.20;99.90;;;;;;4932677;28;20212;-77
2024/01/18 07:45:25;;;;;;;7.70;7.00;;;-0.20;99.90;;;;;;4976754;28;20203;-78
2024/01/18 07:47:53;;;;;;;8.60;7.38;;;-0.20;99.90;;;;;;4971518;28;20207;-80
2024/01/18 07:50:20;;;;;;;6.28;4.60;;;-0.20;99.90;;;;;;4974113;28;20248;-79
2024/01/18 07:53:01;;;;;;;7.43;6.93;;;-0.20;99.90;;;;;;4969826;28;20273;-78
2024/01/18 07:55:29;;;;;;;7.65;7.05;;;-0.20;99.90;;;;;;4964039;28;20279;-79
2024/01/18 07:57:56;;;;;;;11.65;7.20;;;-0.20;99.90;;;;;;4967956;28;20226;-78
2024/01/18 08:00:24;;;;;;;6.55;5.57;;;-0.10;99.90;;;;;;4971225;28;20280;-77
2024/01/18 08:02:51;;;;;;;5.80;4.47;;;0.00;99.90;;;;;;4968341;28;20246;-78
2024/01/18 08:05:18;;;;;;;8.13;6.55;;;-0.10;99.90;;;;;;4978863;28;20263;-79
2024/01/18 08:07:45;;;;;;;2.40;2.28;;;0.00;99.90;;;;;;4973703;28;20787;-78
2024/01/18 08:10:12;;;;;;;8.65;5.18;;;-0.10;99.90;;;;;;4970645;28;20282;-78
2024/01/18 08:12:44;;;;;;;4.20;3.88;;;-0.10;99.90;;;;;;4971863;28;20218;-76
2024/01/18 08:15:12;;;;;;;9.93;9.10;;;-0.10;99.90;;;;;;4978900;28;20222;-79
2024/01/18 08:17:39;;;;;;;3.45;3.25;;;-0.10;99.90;;;;;;4968012;28;20361;-77
2024/01/18 08:20:13;;;;;;;6.32;5.80;;;-0.10;99.90;;;;;;4974788;28;20504;-79
2024/01/18 08:22:42;;;;;;;3.85;3.65;;;-0.10;99.90;;;;;;4975034;28;20198;-78
2024/01/18 08:25:11;;;;;;;7.82;7.22;;;-0.10;99.90;;;;;;4974854;28;20270;-78
2024/01/18 08:27:39;;;;;;;9.38;8.70;;;-0.10;99.90;;;;;;4969487;28;20207;-77
2024/01/18 08:30:07;;;;;;;6.72;6.07;;;-0.10;99.90;;;;;;4963293;28;20238;-79
2024/01/18 08:32:34;;;;;;;2.95;2.85;;;-0.10;99.90;;;;;;4976226;28;20239;-76
2024/01/18 08:35:06;;;;;;;5.35;4.90;;;0.00;99.90;;;;;;4972803;28;20302;-77
2024/01/18 08:37:35;;;;;;;5.05;4.57;;;0.00;99.90;;;;;;4957666;28;20218;-79
2024/01/18 08:40:02;;;;;;;5.55;5.18;;;0.00;99.90;;;;;;4972777;28;20476;-79
2024/01/18 08:42:29;;;;;;;4.45;4.18;;;0.00;99.90;;;;;;4971740;28;20215;-81
2024/01/18 08:44:57;;;;;;;5.60;5.22;;;-0.10;99.90;;;;;;4973697;28;20610;-80
2024/01/18 08:47:26;;;;;;;3.70;3.50;;;0.00;99.90;;;;;;4966871;28;20587;-79
2024/01/18 08:49:53;;;;;;;7.75;7.20;;;0.00;99.90;;;;;;4980542;28;20207;-79
2024/01/18 08:52:21;;;;;;;15.35;3.65;;;-0.10;99.90;;;;;;4964931;28;20285;-78
2024/01/18 08:54:51;;;;;;;4.03;3.72;;;-0.10;99.90;;;;;;4982771;28;20238;-78
2024/01/18 08:57:18;;;;;;;3.67;3.03;;;-0.10;99.90;;;;;;4972398;28;20481;-77
2024/01/18 08:59:45;;;;;;;29.67;3.70;;;-0.10;99.90;;;;;;4980719;28;20218;-80
2024/01/18 09:02:13;;;;;;;7.60;4.88;;;0.00;99.90;;;;;;4995995;28;20210;-80
2024/01/18 09:04:50;;;;;;;7.00;6.32;;;-0.10;99.90;;;;;;4994583;28;20206;-80
2024/01/18 09:07:18;;;;;;;5.13;4.82;;;0.00;99.90;;;;;;4998574;28;20281;-78
2024/01/18 09:09:46;;;;;;;2.55;2.45;;;0.00;99.90;;;;;;4970417;28;20581;-79
2024/01/18 09:12:13;;;;;;;4.13;3.83;;;0.00;99.90;;;;;;4984542;28;20266;-79
2024/01/18 09:14:41;;;;;;;4.95;4.53;;;0.20;99.90;;;;;;4994062;28;20282;-79
2024/01/18 09:17:09;;;;;;;8.48;7.63;;;0.10;99.90;;;;;;4981491;28;20262;-76
2024/01/18 09:19:37;;;;;;;4.40;4.10;;;0.10;99.90;;;;;;4970109;28;20247;-78
2024/01/18 09:22:04;;;;;;;10.07;4.80;;;0.10;99.90;;;;;;4976869;28;20210;-77
2024/01/18 09:24:31;;;;;;;4.85;4.47;;;0.10;99.90;;;;;;4973022;28;20211;-78
2024/01/18 09:26:58;;;;;;;3.78;3.58;;;0.10;99.90;;;;;;4975926;28;20213;-78
2024/01/18 09:29:26;;;;;;;4.82;4.55;;;0.00;99.90;;;;;;4974255;28;20208;-77
2024/01/18 09:31:53;;;;;;;9.50;5.30;;;0.00;99.90;;;;;;4978065;28;20226;-79
2024/01/18 09:34:20;;;;;;;8.82;6.95;;;0.00;99.90;;;;;;4979846;28;20255;-79
2024/01/18 09:36:47;;;;;;;7.90;7.30;;;0.00;99.90;;;;;;4992425;28;20210;-80
2024/01/18 09:39:16;;;;;;;3.70;3.35;;;-0.10;99.90;;;;;;4965757;28;20218;-77
2024/01/18 09:41:55;;;;;;;4.30;3.45;;;0.00;99.90;;;;;;4977764;28;20277;-79
2024/01/18 09:44:25;;;;;;;8.65;8.05;;;0.00;99.90;;;;;;4999574;28;20206;-78
2024/01/18 09:46:54;;;;;;;7.25;6.70;;;0.00;99.90;;;;;;4977053;28;20508;-79
2024/01/18 09:49:21;;;;;;;5.35;4.28;;;0.00;99.90;;;;;;4976490;28;20212;-78
2024/01/18 09:51:49;;;;;;;3.53;2.65;;;0.00;99.90;;;;;;4979048;28;20206;-79
2024/01/18 09:54:18;;;;;;;5.70;5.20;;;-0.10;99.90;;;;;;4962721;28;20241;-78
2024/01/18 09:56:49;;;;;;;4.55;3.88;;;0.00;99.90;;;;;;4979193;28;20215;-79
2024/01/18 09:59:16;;;;;;;16.55;6.57;;;0.00;99.90;;;;;;4978688;28;20202;-80
2024/01/18 10:01:45;;;;;;;3.70;3.47;;;0.00;99.90;;;;;;4972536;28;20218;-79
2024/01/18 10:04:13;;;;;;;3.53;3.40;;;0.00;99.90;;;;;;4945948;28;20210;-78
2024/01/18 10:06:44;;;;;;;3.72;3.53;;;0.10;99.90;;;;;;4985180;28;20218;-80
2024/01/18 10:09:14;;;;;;;9.45;7.57;;;0.20;99.90;;;;;;4991899;28;20230;-80
2024/01/18 10:11:46;;;;;;;15.70;6.53;;;0.20;99.90;;;;;;4981498;28;20224;-79
2024/01/18 10:14:14;;;;;;;6.15;5.70;;;0.20;99.90;;;;;;4971429;28;20250;-82
2024/01/18 10:19:20;;;;;;;6.82;6.22;;;0.10;99.90;;;;;;5120166;23;20310;-78
2024/01/18 10:21:47;;;;;;;7.57;6.95;;;0.10;99.90;;;;;;4983839;28;20314;-79
2024/01/18 10:24:15;;;;;;;5.78;5.28;;;0.20;99.90;;;;;;4983474;28;20214;-78
2024/01/18 10:26:42;;;;;;;4.15;3.90;;;0.30;99.90;;;;;;4982231;28;20200;-79
2024/01/18 10:29:12;;;;;;;5.72;5.28;;;0.30;99.90;;;;;;4967855;28;20211;-78
2024/01/18 10:31:42;;;;;;;5.63;5.13;;;0.30;99.90;;;;;;4966476;28;20245;-78
2024/01/18 10:34:09;;;;;;;4.78;4.47;;;0.30;99.90;;;;;;4978184;28;20234;-77
2024/01/18 10:36:37;;;;;;;4.07;3.58;;;0.30;99.90;;;;;;4977313;28;20231;-78
2024/01/18 10:39:22;;;;;;;6.03;5.43;;;0.10;99.90;;;;;;4980379;28;20211;-79
2024/01/18 10:41:50;;;;;;;2.97;2.75;;;0.20;99.90;;;;;;4958148;28;20212;-77
2024/01/18 10:44:17;;;;;;;4.65;4.32;;;0.20;99.90;;;;;;4975565;28;20245;-78
2024/01/18 10:46:45;;;;;;;4.90;4.45;;;0.00;99.90;;;;;;4983290;28;20207;-80
2024/01/18 10:49:12;;;;;;;9.15;8.05;;;0.00;99.90;;;;;;4981557;28;20242;-78
2024/01/18 10:51:40;;;;;;;4.30;4.00;;;0.00;99.90;;;;;;4977537;28;20238;-81
2024/01/18 10:54:09;;;;;;;6.60;4.20;;;0.00;99.90;;;;;;4963990;28;20239;-80
2024/01/18 10:56:39;;;;;;;5.13;4.72;;;0.00;99.90;;;;;;4978428;28;20517;-77
2024/01/18 10:59:06;;;;;;;8.60;4.15;;;0.00;99.90;;;;;;4985027;28;20511;-79
2024/01/18 11:01:34;;;;;;;6.28;3.88;;;0.10;99.90;;;;;;4988034;28;20262;-78
2024/01/18 11:04:02;;;;;;;6.93;5.95;;;0.00;99.90;;;;;;4991429;28;20248;-77
2024/01/18 11:06:30;;;;;;;4.38;4.10;;;0.10;99.90;;;;;;4988815;28;20262;-79
2024/01/18 11:08:58;;;;;;;4.55;4.15;;;0.30;99.90;;;;;;4966794;28;20207;-79
2024/01/18 11:11:25;;;;;;;6.80;6.13;;;0.40;99.90;;;;;;4980097;28;20269;-78
2024/01/18 11:13:52;;;;;;;2.75;2.65;;;0.30;99.90;;;;;;4982747;28;20354;-79
2024/01/18 11:16:20;;;;;;;10.27;7.65;;;0.20;99.90;;;;;;4984043;28;20210;-78
2024/01/18 11:18:50;;;;;;;7.47;6.82;;;0.30;99.90;;;;;;4982312;28;20217;-79
2024/01/18 11:21:18;;;;;;;5.10;3.38;;;0.30;99.90;;;;;;4979809;28;20211;-78
2024/01/18 11:23:45;;;;;;;5.05;4.75;;;0.10;99.90;;;;;;4984472;28;20238;-78
2024/01/18 11:26:20;;;;;;;4.75;4.32;;;0.10;99.90;;;;;;4984720;28;20213;-78
2024/01/18 11:28:47;;;;;;;4.30;4.10;;;0.10;99.90;;;;;;4973668;28;20206;-79
2024/01/18 11:31:15;;;;;;;5.72;5.43;;;0.00;99.90;;;;;;4966332;28;20204;-78
2024/01/18 11:33:44;;;;;;;6.35;5.80;;;0.10;99.90;;;;;;4980052;28;20215;-78
2024/01/18 11:36:13;;;;;;;4.32;3.97;;;0.10;99.90;;;;;;4964080;28;20245;-79
2024/01/18 11:38:45;;;;;;;4.72;4.43;;;0.00;99.90;;;;;;4966483;28;20436;-78
2024/01/18 11:41:26;;;;;;;6.82;6.43;;;0.00;99.90;;;;;;4977991;28;20289;-77
2024/01/18 11:43:54;;;;;;;4.05;3.83;;;0.10;99.90;;;;;;4976767;28;20234;-77
2024/01/18 11:46:35;;;;;;;7.38;5.25;;;0.30;99.90;;;;;;4972473;28;20215;-79
2024/01/18 11:49:03;;;;;;;4.53;4.22;;;0.30;99.90;;;;;;4978675;28;20285;-80
2024/01/18 11:51:30;;;;;;;6.32;5.60;;;0.20;99.90;;;;;;4980928;28;20210;-79
2024/01/18 11:54:01;;;;;;;8.77;7.88;;;0.10;99.90;;;;;;4981488;28;20727;-78
2024/01/18 11:56:28;;;;;;;5.95;4.78;;;0.00;99.90;;;;;;4980607;28;20463;-79
2024/01/18 11:58:57;;;;;;;1.67;1.67;;;0.00;99.90;;;;;;4960080;29;20275;-78
2024/01/18 12:01:28;;;;;;;6.20;5.80;;;0.10;99.90;;;;;;4977283;28;20216;-78
2024/01/18 12:03:56;;;;;;;5.20;4.28;;;0.10;99.90;;;;;;4980183;28;20234;-79
2024/01/18 12:06:26;;;;;;;9.82;4.13;;;0.00;99.90;;;;;;4997560;28;20211;-79
2024/01/18 12:08:54;;;;;;;5.07;4.57;;;0.00;99.90;;;;;;4989904;28;20199;-78
2024/01/18 12:11:22;;;;;;;7.80;7.25;;;-0.10;99.90;;;;;;4985857;28;20221;-78
2024/01/18 12:13:50;;;;;;;4.55;4.15;;;-0.10;99.90;;;;;;4968831;28;20264;-79
2024/01/18 12:16:19;;;;;;;9.38;5.65;;;-0.20;99.90;;;;;;4981635;28;20255;-78
2024/01/18 12:18:49;;;;;;;7.18;6.78;;;-0.10;99.90;;;;;;4988133;28;20230;-78
2024/01/18 12:21:22;;;;;;;6.85;6.22;;;-0.10;99.90;;;;;;4990630;28;20226;-78
2024/01/18 12:23:50;;;;;;;3.65;3.42;;;-0.20;99.90;;;;;;4961034;28;20242;-78
2024/01/18 12:26:17;;;;;;;11.38;5.93;;;-0.10;99.90;;;;;;4978387;28;20210;-81
2024/01/18 12:28:46;;;;;;;5.90;5.57;;;0.00;99.90;;;;;;4981283;28;20218;-79
2024/01/18 12:31:13;;;;;;;3.97;3.72;;;-0.10;99.90;;;;;;4975928;28;20211;-79
2024/01/18 12:33:40;;;;;;;5.80;5.45;;;-0.20;99.90;;;;;;4982567;28;20249;-77
2024/01/18 12:36:07;;;;;;;3.97;3.70;;;-0.30;99.90;;;;;;4981238;28;20226;-80
2024/01/18 12:38:36;;;;;;;4.55;4.30;;;-0.40;99.90;;;;;;4969250;28;20248;-79
2024/01/18 12:41:03;;;;;;;6.45;5.15;;;-0.30;99.90;;;;;;4972390;28;20211;-77
2024/01/18 12:43:30;;;;;;;7.45;6.88;;;-0.20;99.90;;;;;;4981033;28;20230;-76
2024/01/18 12:45:57;;;;;;;15.25;5.63;;;-0.30;99.90;;;;;;4970759;28;20227;-81
2024/01/18 12:48:27;;;;;;;3.88;3.70;;;-0.40;99.90;;;;;;4978076;28;20413;-78
2024/01/18 12:50:54;;;;;;;2.45;2.35;;;-0.30;99.90;;;;;;4987528;28;20202;-79
2024/01/18 12:53:23;;;;;;;3.72;3.45;;;-0.30;99.90;;;;;;4991397;28;20191;-79
2024/01/18 12:55:50;;;;;;;8.80;7.20;;;-0.40;99.90;;;;;;4996835;28;20245;-81
2024/01/18 12:58:17;;;;;;;4.82;4.63;;;-0.40;99.90;;;;;;4989094;28;20483;-79
2024/01/18 13:00:49;;;;;;;5.80;5.38;;;-0.30;99.90;;;;;;4981811;28;20306;-79